sensor_id;sensor_type;location;lat;lon;timestamp;temperature;humidity
59282;DHT22;45054;52.062;10.010;2023-04-01T00:00:58;10.20;99.90
59282;DHT22;45054;52.062;10.010;2023-04-01T00:03:23;10.30;99.90
59282;DHT22;45054;52.062;10.010;2023-04-01T00:05:49;10.30;99.90
59282;DHT22;45054;52.062;10.010;2023-04-01T00:08:16;10.30;99.90
59282;DHT22;45054;52.062;10.010;2023-04-01T00:10:42;10.30;99.90
59282;DHT22;45054;52.062;10.010;2023-04-01T00:13:07;10.30;99.90
59282;DHT22;45054;52.062;10.010;2023-04-01T00:15:33;10.30;99.90
59282;DHT22;45054;52.062;10.010;2023-04-01T00:17:59;10.20;99.90
59282;DHT22;45054;52.062;10.010;2023-04-01T00:20:24;10.20;99.90
59282;DHT22;45054;52.062;10.010;2023-04-01T00:22:50;10.30;99.90
59282;DHT22;45054;52.062;10.010;2023-04-01T00:25:17;10.20;99.90
59282;DHT22;45054;52.062;10.010;2023-04-01T00:27:42;10.20;99.90
59282;DHT22;45054;52.062;10.010;2023-04-01T00:30:08;10.20;99.90
59282;DHT22;45054;52.062;10.010;2023-04-01T00:32:34;10.20;99.90
59282;DHT22;45054;52.062;10.010;2023-04-01T00:34:59;10.20;99.90
59282;DHT22;45054;52.062;10.010;2023-04-01T00:37:25;10.20;99.90
59282;DHT22;45054;52.062;10.010;2023-04-01T00:39:50;10.20;99.90
59282;DHT22;45054;52.062;10.010;2023-04-01T00:42:17;10.20;99.90
59282;DHT22;45054;52.062;10.010;2023-04-01T00:44:44;10.20;99.90
59282;DHT22;45054;52.062;10.010;2023-04-01T00:47:10;10.10;99.90
59282;DHT22;45054;52.062;10.010;2023-04-01T00:49:36;10.10;99.90
59282;DHT22;45054;52.062;10.010;2023-04-01T00:52:03;10.10;99.90
59282;DHT22;45054;52.062;10.010;2023-04-01T00:54:29;10.10;99.90
59282;DHT22;45054;52.062;10.010;2023-04-01T00:56:56;10.10;99.90
59282;DHT22;45054;52.062;10.010;2023-04-01T00:59:25;10.10;99.90
59282;DHT22;45054;52.062;10.010;2023-04-01T01:01:51;10.10;99.90
59282;DHT22;45054;52.062;10.010;2023-04-01T01:04:21;10.10;99.90
59282;DHT22;45054;52.062;10.010;2023-04-01T01:06:46;10.00;99.90
59282;DHT22;45054;52.062;10.010;2023-04-01T01:09:18;10.10;99.90
59282;DHT22;45054;52.062;10.010;2023-04-01T01:11:48;10.00;99.90
59282;DHT22;45054;52.062;10.010;2023-04-01T01:14:21;10.00;99.90
59282;DHT22;45054;52.062;10.010;2023-04-01T01:16:52;10.10;99.90
59282;DHT22;45054;52.062;10.010;2023-04-01T01:19:25;10.10;99.90
59282;DHT22;45054;52.062;10.010;2023-04-01T01:22:01;10.10;99.90
59282;DHT22;45054;52.062;10.010;2023-04-01T01:24:40;10.00;99.90
59282;DHT22;45054;52.062;10.010;2023-04-01T01:27:08;10.00;99.90
59282;DHT22;45054;52.062;10.010;2023-04-01T01:29:41;10.00;99.90
59282;DHT22;45054;52.062;10.010;2023-04-01T01:32:12;10.00;99.90
59282;DHT22;45054;52.062;10.010;2023-04-01T01:34:43;10.00;99.90
59282;DHT22;45054;52.062;10.010;2023-04-01T01:37:15;10.00;99.90
59282;DHT22;45054;52.062;10.010;2023-04-01T01:39:40;9.90;99.90
59282;DHT22;45054;52.062;10.010;2023-04-01T01:42:08;9.90;99.90
59282;DHT22;45054;52.062;10.010;2023-04-01T01:44:35;9.90;99.90
59282;DHT22;45054;52.062;10.010;2023-04-01T01:47:01;9.80;99.90
59282;DHT22;45054;52.062;10.010;2023-04-01T01:49:26;9.90;99.90
59282;DHT22;45054;52.062;10.010;2023-04-01T01:51:52;9.80;99.90
59282;DHT22;45054;52.062;10.010;2023-04-01T01:54:19;9.80;99.90
59282;DHT22;45054;52.062;10.010;2023-04-01T01:56:45;9.80;99.90
59282;DHT22;45054;52.062;10.010;2023-04-01T01:59:11;9.80;99.90
59282;DHT22;45054;52.062;10.010;2023-04-01T02:01:39;9.80;99.90
59282;DHT22;45054;52.062;10.010;2023-04-01T02:04:05;9.80;99.90
59282;DHT22;45054;52.062;10.010;2023-04-01T02:06:32;9.80;99.90
59282;DHT22;45054;52.062;10.010;2023-04-01T02:09:00;9.80;99.90
59282;DHT22;45054;52.062;10.010;2023-04-01T02:11:28;9.80;99.90
59282;DHT22;45054;52.062;10.010;2023-04-01T02:13:55;9.80;99.90
59282;DHT22;45054;52.062;10.010;2023-04-01T02:16:22;9.90;99.90
59282;DHT22;45054;52.062;10.010;2023-04-01T02:18:49;9.80;99.90
59282;DHT22;45054;52.062;10.010;2023-04-01T02:21:16;9.90;99.90
59282;DHT22;45054;52.062;10.010;2023-04-01T02:23:42;9.80;99.90
59282;DHT22;45054;52.062;10.010;2023-04-01T02:26:07;9.80;99.90
59282;DHT22;45054;52.062;10.010;2023-04-01T02:28:36;9.90;99.90
59282;DHT22;45054;52.062;10.010;2023-04-01T02:31:02;9.80;99.90
59282;DHT22;45054;52.062;10.010;2023-04-01T02:33:28;9.80;99.90
59282;DHT22;45054;52.062;10.010;2023-04-01T02:35:54;9.80;99.90
59282;DHT22;45054;52.062;10.010;2023-04-01T02:38:20;9.90;99.90
59282;DHT22;45054;52.062;10.010;2023-04-01T02:40:46;9.90;99.90
59282;DHT22;45054;52.062;10.010;2023-04-01T02:43:12;9.90;99.90
59282;DHT22;45054;52.062;10.010;2023-04-01T02:45:39;9.80;99.90
59282;DHT22;45054;52.062;10.010;2023-04-01T02:48:05;9.80;99.90
59282;DHT22;45054;52.062;10.010;2023-04-01T02:50:30;9.80;99.90
59282;DHT22;45054;52.062;10.010;2023-04-01T02:52:56;9.80;99.90
59282;DHT22;45054;52.062;10.010;2023-04-01T02:55:21;9.80;99.90
59282;DHT22;45054;52.062;10.010;2023-04-01T02:57:46;9.80;99.90
59282;DHT22;45054;52.062;10.010;2023-04-01T03:00:12;9.80;99.90
59282;DHT22;45054;52.062;10.010;2023-04-01T03:02:39;9.70;99.90
59282;DHT22;45054;52.062;10.010;2023-04-01T03:05:05;9.70;99.90
59282;DHT22;45054;52.062;10.010;2023-04-01T03:07:31;9.70;99.90
59282;DHT22;45054;52.062;10.010;2023-04-01T03:09:56;9.70;99.90
59282;DHT22;45054;52.062;10.010;2023-04-01T03:12:21;9.70;99.90
59282;DHT22;45054;52.062;10.010;2023-04-01T03:14:47;9.70;99.90
59282;DHT22;45054;52.062;10.010;2023-04-01T03:17:12;9.70;99.90
59282;DHT22;45054;52.062;10.010;2023-04-01T03:19:39;9.70;99.90
59282;DHT22;45054;52.062;10.010;2023-04-01T03:22:05;9.70;99.90
59282;DHT22;45054;52.062;10.010;2023-04-01T03:24:30;9.70;99.90
59282;DHT22;45054;52.062;10.010;2023-04-01T03:26:55;9.70;99.90
59282;DHT22;45054;52.062;10.010;2023-04-01T03:29:21;9.70;99.90
59282;DHT22;45054;52.062;10.010;2023-04-01T03:31:46;9.70;99.90
59282;DHT22;45054;52.062;10.010;2023-04-01T03:34:12;9.70;99.90
59282;DHT22;45054;52.062;10.010;2023-04-01T03:36:38;9.70;99.90
59282;DHT22;45054;52.062;10.010;2023-04-01T03:39:04;9.70;99.90
59282;DHT22;45054;52.062;10.010;2023-04-01T03:41:29;9.60;99.90
59282;DHT22;45054;52.062;10.010;2023-04-01T03:43:55;9.60;99.90
59282;DHT22;45054;52.062;10.010;2023-04-01T03:46:20;9.60;99.90
59282;DHT22;45054;52.062;10.010;2023-04-01T03:48:46;9.70;99.90
59282;DHT22;45054;52.062;10.010;2023-04-01T03:51:11;9.70;99.90
59282;DHT22;45054;52.062;10.010;2023-04-01T03:53:38;9.70;99.90
59282;DHT22;45054;52.062;10.010;2023-04-01T03:56:04;9.70;99.90
59282;DHT22;45054;52.062;10.010;2023-04-01T03:58:30;9.70;99.90
59282;DHT22;45054;52.062;10.010;2023-04-01T04:00:55;9.70;99.90
59282;DHT22;45054;52.062;10.010;2023-04-01T04:03:20;9.70;99.90
59282;DHT22;45054;52.062;10.010;2023-04-01T04:05:46;9.70;99.90
59282;DHT22;45054;52.062;10.010;2023-04-01T04:08:12;9.70;99.90
59282;DHT22;45054;52.062;10.010;2023-04-01T04:10:38;9.60;99.90
59282;DHT22;45054;52.062;10.010;2023-04-01T04:13:04;9.70;99.90
59282;DHT22;45054;52.062;10.010;2023-04-01T04:15:29;9.60;99.90
59282;DHT22;45054;52.062;10.010;2023-04-01T04:17:55;9.60;99.90
59282;DHT22;45054;52.062;10.010;2023-04-01T04:20:20;9.70;99.90
59282;DHT22;45054;52.062;10.010;2023-04-01T04:22:46;9.60;99.90
59282;DHT22;45054;52.062;10.010;2023-04-01T04:25:11;9.70;99.90
59282;DHT22;45054;52.062;10.010;2023-04-01T04:27:38;9.60;99.90
59282;DHT22;45054;52.062;10.010;2023-04-01T04:30:04;9.60;99.90
59282;DHT22;45054;52.062;10.010;2023-04-01T04:32:30;9.60;99.90
59282;DHT22;45054;52.062;10.010;2023-04-01T04:34:55;9.60;99.90
59282;DHT22;45054;52.062;10.010;2023-04-01T04:37:21;9.60;99.90
59282;DHT22;45054;52.062;10.010;2023-04-01T04:39:46;9.70;99.90
59282;DHT22;45054;52.062;10.010;2023-04-01T04:42:11;9.70;99.90
59282;DHT22;45054;52.062;10.010;2023-04-01T04:44:38;9.70;99.90
59282;DHT22;45054;52.062;10.010;2023-04-01T04:47:04;9.70;99.90
59282;DHT22;45054;52.062;10.010;2023-04-01T04:49:29;9.60;99.90
59282;DHT22;45054;52.062;10.010;2023-04-01T04:51:55;9.60;99.90
59282;DHT22;45054;52.062;10.010;2023-04-01T04:54:20;9.60;99.90
59282;DHT22;45054;52.062;10.010;2023-04-01T04:56:45;9.60;99.90
59282;DHT22;45054;52.062;10.010;2023-04-01T04:59:11;9.60;99.90
59282;DHT22;45054;52.062;10.010;2023-04-01T05:01:38;9.60;99.90
59282;DHT22;45054;52.062;10.010;2023-04-01T05:04:03;9.60;99.90
59282;DHT22;45054;52.062;10.010;2023-04-01T05:06:29;9.60;99.90
59282;DHT22;45054;52.062;10.010;2023-04-01T05:08:54;9.60;99.90
59282;DHT22;45054;52.062;10.010;2023-04-01T05:11:20;9.60;99.90
59282;DHT22;45054;52.062;10.010;2023-04-01T05:13:46;9.60;99.90
59282;DHT22;45054;52.062;10.010;2023-04-01T05:16:12;9.60;99.90
59282;DHT22;45054;52.062;10.010;2023-04-01T05:18:39;9.60;99.90
59282;DHT22;45054;52.062;10.010;2023-04-01T05:21:06;9.60;99.90
59282;DHT22;45054;52.062;10.010;2023-04-01T05:23:32;9.50;99.90
59282;DHT22;45054;52.062;10.010;2023-04-01T05:25:57;9.50;99.90
59282;DHT22;45054;52.062;10.010;2023-04-01T05:28:22;9.60;99.90
59282;DHT22;45054;52.062;10.010;2023-04-01T05:30:48;9.50;99.90
59282;DHT22;45054;52.062;10.010;2023-04-01T05:33:13;9.60;99.90
59282;DHT22;45054;52.062;10.010;2023-04-01T05:35:40;9.60;99.90
59282;DHT22;45054;52.062;10.010;2023-04-01T05:38:06;9.60;99.90
59282;DHT22;45054;52.062;10.010;2023-04-01T05:40:31;9.60;99.90
59282;DHT22;45054;52.062;10.010;2023-04-01T05:42:58;9.60;99.90
59282;DHT22;45054;52.062;10.010;2023-04-01T05:45:23;9.60;99.90
59282;DHT22;45054;52.062;10.010;2023-04-01T05:47:49;9.60;99.90
59282;DHT22;45054;52.062;10.010;2023-04-01T05:50:14;9.60;99.90
59282;DHT22;45054;52.062;10.010;2023-04-01T05:52:41;9.60;99.90
59282;DHT22;45054;52.062;10.010;2023-04-01T05:55:07;9.70;99.90
59282;DHT22;45054;52.062;10.010;2023-04-01T05:57:32;9.70;99.90
59282;DHT22;45054;52.062;10.010;2023-04-01T05:59:58;9.70;99.90
59282;DHT22;45054;52.062;10.010;2023-04-01T06:02:23;9.70;99.90
59282;DHT22;45054;52.062;10.010;2023-04-01T06:04:49;9.70;99.90
59282;DHT22;45054;52.062;10.010;2023-04-01T06:07:18;9.70;99.90
59282;DHT22;45054;52.062;10.010;2023-04-01T06:09:44;9.70;99.90
59282;DHT22;45054;52.062;10.010;2023-04-01T06:12:15;9.80;99.90
59282;DHT22;45054;52.062;10.010;2023-04-01T06:14:43;9.80;99.90
59282;DHT22;45054;52.062;10.010;2023-04-01T06:17:18;9.80;99.90
59282;DHT22;45054;52.062;10.010;2023-04-01T06:19:46;9.90;99.90
59282;DHT22;45054;52.062;10.010;2023-04-01T06:22:26;9.90;99.90
59282;DHT22;45054;52.062;10.010;2023-04-01T06:25:05;9.90;99.90
59282;DHT22;45054;52.062;10.010;2023-04-01T06:27:39;9.90;99.90
59282;DHT22;45054;52.062;10.010;2023-04-01T06:30:13;10.00;99.90
59282;DHT22;45054;52.062;10.010;2023-04-01T06:32:56;10.00;99.90
59282;DHT22;45054;52.062;10.010;2023-04-01T06:35:36;10.00;99.90
59282;DHT22;45054;52.062;10.010;2023-04-01T06:38:20;10.00;99.90
59282;DHT22;45054;52.062;10.010;2023-04-01T06:40:58;10.00;99.90
59282;DHT22;45054;52.062;10.010;2023-04-01T06:43:29;10.10;99.90
59282;DHT22;45054;52.062;10.010;2023-04-01T06:45:59;10.10;99.90
59282;DHT22;45054;52.062;10.010;2023-04-01T06:48:35;10.00;99.90
59282;DHT22;45054;52.062;10.010;2023-04-01T06:51:06;10.00;99.90
59282;DHT22;45054;52.062;10.010;2023-04-01T06:53:34;10.00;99.90
59282;DHT22;45054;52.062;10.010;2023-04-01T06:56:04;10.00;99.90
59282;DHT22;45054;52.062;10.010;2023-04-01T06:58:31;10.00;99.90
59282;DHT22;45054;52.062;10.010;2023-04-01T07:00:59;10.00;99.90
59282;DHT22;45054;52.062;10.010;2023-04-01T07:03:26;10.10;99.90
59282;DHT22;45054;52.062;10.010;2023-04-01T07:05:55;10.00;99.90
59282;DHT22;45054;52.062;10.010;2023-04-01T07:08:22;10.10;99.90
59282;DHT22;45054;52.062;10.010;2023-04-01T07:10:50;10.10;99.90
59282;DHT22;45054;52.062;10.010;2023-04-01T07:13:18;10.10;99.90
59282;DHT22;45054;52.062;10.010;2023-04-01T07:15:48;10.10;99.90
59282;DHT22;45054;52.062;10.010;2023-04-01T07:18:16;10.20;99.90
59282;DHT22;45054;52.062;10.010;2023-04-01T07:20:43;10.10;99.90
59282;DHT22;45054;52.062;10.010;2023-04-01T07:23:10;10.20;99.90
59282;DHT22;45054;52.062;10.010;2023-04-01T07:25:41;10.20;99.90
59282;DHT22;45054;52.062;10.010;2023-04-01T07:28:11;10.20;99.90
59282;DHT22;45054;52.062;10.010;2023-04-01T07:30:43;10.20;99.90
59282;DHT22;45054;52.062;10.010;2023-04-01T07:33:11;10.20;99.90
59282;DHT22;45054;52.062;10.010;2023-04-01T07:35:39;10.30;99.90
59282;DHT22;45054;52.062;10.010;2023-04-01T07:38:11;10.30;99.90
59282;DHT22;45054;52.062;10.010;2023-04-01T07:40:40;10.30;99.90
59282;DHT22;45054;52.062;10.010;2023-04-01T07:43:11;10.30;99.90
59282;DHT22;45054;52.062;10.010;2023-04-01T07:45:41;10.30;99.90
59282;DHT22;45054;52.062;10.010;2023-04-01T07:48:15;10.30;99.90
59282;DHT22;45054;52.062;10.010;2023-04-01T07:50:46;10.30;99.90
59282;DHT22;45054;52.062;10.010;2023-04-01T07:53:13;10.30;99.90
59282;DHT22;45054;52.062;10.010;2023-04-01T07:55:42;10.40;99.90
59282;DHT22;45054;52.062;10.010;2023-04-01T07:58:12;10.40;99.90
59282;DHT22;45054;52.062;10.010;2023-04-01T08:00:41;10.50;99.90
59282;DHT22;45054;52.062;10.010;2023-04-01T08:03:17;10.50;99.90
59282;DHT22;45054;52.062;10.010;2023-04-01T08:05:47;10.60;99.90
59282;DHT22;45054;52.062;10.010;2023-04-01T08:08:17;10.50;99.90
59282;DHT22;45054;52.062;10.010;2023-04-01T08:10:44;10.60;99.90
59282;DHT22;45054;52.062;10.010;2023-04-01T08:13:13;10.60;99.90
59282;DHT22;45054;52.062;10.010;2023-04-01T08:15:42;10.50;99.90
59282;DHT22;45054;52.062;10.010;2023-04-01T08:18:15;10.60;99.90
59282;DHT22;45054;52.062;10.010;2023-04-01T08:20:45;10.60;99.90
59282;DHT22;45054;52.062;10.010;2023-04-01T08:23:12;10.70;99.90
59282;DHT22;45054;52.062;10.010;2023-04-01T08:25:39;10.80;99.90
59282;DHT22;45054;52.062;10.010;2023-04-01T08:28:09;10.90;99.90
59282;DHT22;45054;52.062;10.010;2023-04-01T08:30:38;10.90;99.90
59282;DHT22;45054;52.062;10.010;2023-04-01T08:33:08;11.00;99.90
59282;DHT22;45054;52.062;10.010;2023-04-01T08:35:36;10.90;99.90
59282;DHT22;45054;52.062;10.010;2023-04-01T08:38:05;10.90;99.90
59282;DHT22;45054;52.062;10.010;2023-04-01T08:40:42;10.90;99.90
59282;DHT22;45054;52.062;10.010;2023-04-01T08:43:15;10.90;99.90
59282;DHT22;45054;52.062;10.010;2023-04-01T08:45:53;10.90;99.90
59282;DHT22;45054;52.062;10.010;2023-04-01T08:48:25;11.00;99.90
59282;DHT22;45054;52.062;10.010;2023-04-01T08:50:56;11.00;99.90
59282;DHT22;45054;52.062;10.010;2023-04-01T08:53:29;11.00;99.90
59282;DHT22;45054;52.062;10.010;2023-04-01T08:56:03;11.00;99.90
59282;DHT22;45054;52.062;10.010;2023-04-01T08:58:42;11.00;99.90
59282;DHT22;45054;52.062;10.010;2023-04-01T09:01:13;11.00;99.90
59282;DHT22;45054;52.062;10.010;2023-04-01T09:03:46;11.00;99.90
59282;DHT22;45054;52.062;10.010;2023-04-01T09:11:54;11.10;99.90
59282;DHT22;45054;52.062;10.010;2023-04-01T09:14:28;11.20;99.90
59282;DHT22;45054;52.062;10.010;2023-04-01T09:17:19;11.10;99.90
59282;DHT22;45054;52.062;10.010;2023-04-01T09:20:05;11.20;99.90
59282;DHT22;45054;52.062;10.010;2023-04-01T09:22:37;11.10;99.90
59282;DHT22;45054;52.062;10.010;2023-04-01T09:27:53;11.20;99.90
59282;DHT22;45054;52.062;10.010;2023-04-01T09:30:34;11.20;99.90
59282;DHT22;45054;52.062;10.010;2023-04-01T09:33:20;11.20;99.90
59282;DHT22;45054;52.062;10.010;2023-04-01T09:35:50;11.20;99.90
59282;DHT22;45054;52.062;10.010;2023-04-01T09:38:22;11.20;99.90
59282;DHT22;45054;52.062;10.010;2023-04-01T09:40:52;11.20;99.90
59282;DHT22;45054;52.062;10.010;2023-04-01T09:43:25;11.20;99.90
59282;DHT22;45054;52.062;10.010;2023-04-01T09:45:55;11.20;99.90
59282;DHT22;45054;52.062;10.010;2023-04-01T09:48:28;11.20;99.90
59282;DHT22;45054;52.062;10.010;2023-04-01T09:51:02;11.20;99.90
59282;DHT22;45054;52.062;10.010;2023-04-01T09:53:33;11.20;99.90
59282;DHT22;45054;52.062;10.010;2023-04-01T10:04:27;11.20;99.90
59282;DHT22;45054;52.062;10.010;2023-04-01T10:07:01;11.20;99.90
59282;DHT22;45054;52.062;10.010;2023-04-01T10:09:42;11.20;99.90
59282;DHT22;45054;52.062;10.010;2023-04-01T10:12:30;11.30;99.90
59282;DHT22;45054;52.062;10.010;2023-04-01T10:17:51;11.40;99.90
59282;DHT22;45054;52.062;10.010;2023-04-01T10:20:37;11.50;99.90
59282;DHT22;45054;52.062;10.010;2023-04-01T10:23:16;11.60;99.90
59282;DHT22;45054;52.062;10.010;2023-04-01T10:28:46;11.70;99.90
59282;DHT22;45054;52.062;10.010;2023-04-01T10:31:19;11.80;99.90
59282;DHT22;45054;52.062;10.010;2023-04-01T10:33:54;11.80;99.90
59282;DHT22;45054;52.062;10.010;2023-04-01T10:42:14;11.90;99.90
59282;DHT22;45054;52.062;10.010;2023-04-01T10:44:55;11.80;99.90
59282;DHT22;45054;52.062;10.010;2023-04-01T10:50:20;11.80;99.90
59282;DHT22;45054;52.062;10.010;2023-04-01T10:53:04;11.80;99.90
59282;DHT22;45054;52.062;10.010;2023-04-01T10:55:51;11.80;99.90
59282;DHT22;45054;52.062;10.010;2023-04-01T10:58:25;11.80;99.90
59282;DHT22;45054;52.062;10.010;2023-04-01T11:01:02;11.90;99.90
59282;DHT22;45054;52.062;10.010;2023-04-01T11:03:46;12.00;99.90
59282;DHT22;45054;52.062;10.010;2023-04-01T11:06:22;12.00;99.90
59282;DHT22;45054;52.062;10.010;2023-04-01T11:11:44;12.10;99.90
59282;DHT22;45054;52.062;10.010;2023-04-01T11:14:22;12.00;99.90
59282;DHT22;45054;52.062;10.010;2023-04-01T11:17:07;11.80;99.90
59282;DHT22;45054;52.062;10.010;2023-04-01T11:19:45;11.80;99.90
59282;DHT22;45054;52.062;10.010;2023-04-01T11:25:00;11.90;99.90
59282;DHT22;45054;52.062;10.010;2023-04-01T11:27:38;12.00;99.90
59282;DHT22;45054;52.062;10.010;2023-04-01T11:30:13;12.20;99.90
59282;DHT22;45054;52.062;10.010;2023-04-01T11:32:57;12.20;99.90
59282;DHT22;45054;52.062;10.010;2023-04-01T11:35:40;12.30;99.90
59282;DHT22;45054;52.062;10.010;2023-04-01T11:38:15;12.30;99.90
59282;DHT22;45054;52.062;10.010;2023-04-01T11:40:45;12.40;99.90
59282;DHT22;45054;52.062;10.010;2023-04-01T11:43:14;12.50;99.90
59282;DHT22;45054;52.062;10.010;2023-04-01T11:45:43;12.50;99.90
59282;DHT22;45054;52.062;10.010;2023-04-01T11:48:13;12.50;99.90
59282;DHT22;45054;52.062;10.010;2023-04-01T11:50:46;12.40;99.90
59282;DHT22;45054;52.062;10.010;2023-04-01T11:53:15;12.40;99.90
59282;DHT22;45054;52.062;10.010;2023-04-01T11:55:50;12.50;99.90
59282;DHT22;45054;52.062;10.010;2023-04-01T11:58:35;12.60;99.90
59282;DHT22;45054;52.062;10.010;2023-04-01T12:01:18;12.70;99.90
59282;DHT22;45054;52.062;10.010;2023-04-01T12:04:00;12.70;99.90
59282;DHT22;45054;52.062;10.010;2023-04-01T12:06:30;12.80;99.90
59282;DHT22;45054;52.062;10.010;2023-04-01T12:08:59;12.90;99.90
59282;DHT22;45054;52.062;10.010;2023-04-01T12:11:28;12.90;99.90
59282;DHT22;45054;52.062;10.010;2023-04-01T12:13:56;13.00;99.90
59282;DHT22;45054;52.062;10.010;2023-04-01T12:16:33;13.00;99.90
59282;DHT22;45054;52.062;10.010;2023-04-01T12:19:04;13.10;99.90
59282;DHT22;45054;52.062;10.010;2023-04-01T12:21:36;13.20;99.90
59282;DHT22;45054;52.062;10.010;2023-04-01T12:24:05;13.20;99.90
59282;DHT22;45054;52.062;10.010;2023-04-01T12:26:42;13.20;99.90
59282;DHT22;45054;52.062;10.010;2023-04-01T12:29:21;13.40;99.90
59282;DHT22;45054;52.062;10.010;2023-04-01T12:31:53;13.50;99.90
59282;DHT22;45054;52.062;10.010;2023-04-01T12:34:28;13.60;99.90
59282;DHT22;45054;52.062;10.010;2023-04-01T12:37:00;13.80;99.90
59282;DHT22;45054;52.062;10.010;2023-04-01T12:39:33;13.80;99.90
59282;DHT22;45054;52.062;10.010;2023-04-01T12:42:04;13.80;99.90
59282;DHT22;45054;52.062;10.010;2023-04-01T12:44:43;13.90;99.90
59282;DHT22;45054;52.062;10.010;2023-04-01T12:47:15;13.90;99.90
59282;DHT22;45054;52.062;10.010;2023-04-01T12:49:50;13.80;99.90
59282;DHT22;45054;52.062;10.010;2023-04-01T12:52:18;13.70;99.90
59282;DHT22;45054;52.062;10.010;2023-04-01T12:54:56;13.70;99.90
59282;DHT22;45054;52.062;10.010;2023-04-01T12:57:29;13.60;99.90
59282;DHT22;45054;52.062;10.010;2023-04-01T13:00:03;13.60;99.90
59282;DHT22;45054;52.062;10.010;2023-04-01T13:02:38;13.50;99.90
59282;DHT22;45054;52.062;10.010;2023-04-01T13:08:04;13.50;99.90
59282;DHT22;45054;52.062;10.010;2023-04-01T13:10:38;13.40;99.90
59282;DHT22;45054;52.062;10.010;2023-04-01T13:13:12;13.30;99.90
59282;DHT22;45054;52.062;10.010;2023-04-01T13:15:41;13.30;99.90
59282;DHT22;45054;52.062;10.010;2023-04-01T13:18:14;13.20;99.90
59282;DHT22;45054;52.062;10.010;2023-04-01T13:20:43;13.10;99.90
59282;DHT22;45054;52.062;10.010;2023-04-01T13:23:12;13.00;99.90
59282;DHT22;45054;52.062;10.010;2023-04-01T13:25:39;12.90;99.90
59282;DHT22;45054;52.062;10.010;2023-04-01T13:28:10;12.60;99.90
59282;DHT22;45054;52.062;10.010;2023-04-01T13:30:38;12.40;99.90
59282;DHT22;45054;52.062;10.010;2023-04-01T13:33:04;12.30;99.90
59282;DHT22;45054;52.062;10.010;2023-04-01T13:35:38;12.10;99.90
59282;DHT22;45054;52.062;10.010;2023-04-01T13:38:12;12.00;99.90
59282;DHT22;45054;52.062;10.010;2023-04-01T13:40:45;11.80;99.90
59282;DHT22;45054;52.062;10.010;2023-04-01T13:43:14;11.70;99.90
59282;DHT22;45054;52.062;10.010;2023-04-01T13:45:43;11.60;99.90
59282;DHT22;45054;52.062;10.010;2023-04-01T13:48:19;11.50;99.90
59282;DHT22;45054;52.062;10.010;2023-04-01T13:50:53;11.40;99.90
59282;DHT22;45054;52.062;10.010;2023-04-01T13:53:31;11.40;99.90
59282;DHT22;45054;52.062;10.010;2023-04-01T13:56:13;11.50;99.90
59282;DHT22;45054;52.062;10.010;2023-04-01T13:58:53;11.50;99.90
59282;DHT22;45054;52.062;10.010;2023-04-01T14:01:23;11.60;99.90
59282;DHT22;45054;52.062;10.010;2023-04-01T14:03:56;11.60;99.90
59282;DHT22;45054;52.062;10.010;2023-04-01T14:06:30;11.60;99.90
59282;DHT22;45054;52.062;10.010;2023-04-01T14:09:03;11.70;99.90
59282;DHT22;45054;52.062;10.010;2023-04-01T14:11:31;11.60;99.90
59282;DHT22;45054;52.062;10.010;2023-04-01T14:14:02;11.70;99.90
59282;DHT22;45054;52.062;10.010;2023-04-01T14:16:52;11.70;99.90
59282;DHT22;45054;52.062;10.010;2023-04-01T14:19:24;11.70;99.90
59282;DHT22;45054;52.062;10.010;2023-04-01T14:21:53;11.80;99.90
59282;DHT22;45054;52.062;10.010;2023-04-01T14:24:23;11.80;99.90
59282;DHT22;45054;52.062;10.010;2023-04-01T14:26:56;11.80;99.90
59282;DHT22;45054;52.062;10.010;2023-04-01T14:29:25;11.80;99.90
59282;DHT22;45054;52.062;10.010;2023-04-01T14:31:55;11.80;99.90
59282;DHT22;45054;52.062;10.010;2023-04-01T14:34:27;11.80;99.90
59282;DHT22;45054;52.062;10.010;2023-04-01T14:37:03;11.80;99.90
59282;DHT22;45054;52.062;10.010;2023-04-01T14:39:36;11.80;99.90
59282;DHT22;45054;52.062;10.010;2023-04-01T14:42:08;11.80;99.90
59282;DHT22;45054;52.062;10.010;2023-04-01T14:44:48;11.70;99.90
59282;DHT22;45054;52.062;10.010;2023-04-01T14:47:22;11.70;99.90
59282;DHT22;45054;52.062;10.010;2023-04-01T14:49:50;11.70;99.90
59282;DHT22;45054;52.062;10.010;2023-04-01T14:52:22;11.60;99.90
59282;DHT22;45054;52.062;10.010;2023-04-01T14:54:48;11.60;99.90
59282;DHT22;45054;52.062;10.010;2023-04-01T14:57:16;11.60;99.90
59282;DHT22;45054;52.062;10.010;2023-04-01T14:59:46;11.60;99.90
59282;DHT22;45054;52.062;10.010;2023-04-01T15:02:16;11.70;99.90
59282;DHT22;45054;52.062;10.010;2023-04-01T15:04:46;11.80;99.90
59282;DHT22;45054;52.062;10.010;2023-04-01T15:07:23;11.80;99.90
59282;DHT22;45054;52.062;10.010;2023-04-01T15:09:55;11.80;99.90
59282;DHT22;45054;52.062;10.010;2023-04-01T15:12:24;11.80;99.90
59282;DHT22;45054;52.062;10.010;2023-04-01T15:14:55;11.80;99.90
59282;DHT22;45054;52.062;10.010;2023-04-01T15:17:30;11.70;99.90
59282;DHT22;45054;52.062;10.010;2023-04-01T15:20:04;11.70;99.90
59282;DHT22;45054;52.062;10.010;2023-04-01T15:22:41;11.80;99.90
59282;DHT22;45054;52.062;10.010;2023-04-01T15:25:16;11.90;99.90
59282;DHT22;45054;52.062;10.010;2023-04-01T15:27:44;11.90;99.90
59282;DHT22;45054;52.062;10.010;2023-04-01T15:30:17;11.90;99.90
59282;DHT22;45054;52.062;10.010;2023-04-01T15:32:48;11.90;99.90
59282;DHT22;45054;52.062;10.010;2023-04-01T15:35:19;11.80;99.90
59282;DHT22;45054;52.062;10.010;2023-04-01T15:37:50;11.90;99.90
59282;DHT22;45054;52.062;10.010;2023-04-01T15:40:20;11.90;99.90
59282;DHT22;45054;52.062;10.010;2023-04-01T15:42:55;11.80;99.90
59282;DHT22;45054;52.062;10.010;2023-04-01T15:45:29;11.80;99.90
59282;DHT22;45054;52.062;10.010;2023-04-01T15:47:58;11.90;99.90
59282;DHT22;45054;52.062;10.010;2023-04-01T15:50:41;11.60;99.90
59282;DHT22;45054;52.062;10.010;2023-04-01T15:53:17;11.40;99.90
59282;DHT22;45054;52.062;10.010;2023-04-01T15:55:44;11.20;99.90
59282;DHT22;45054;52.062;10.010;2023-04-01T15:58:27;11.20;99.90
59282;DHT22;45054;52.062;10.010;2023-04-01T16:00:56;11.10;99.90
59282;DHT22;45054;52.062;10.010;2023-04-01T16:03:31;11.10;99.90
59282;DHT22;45054;52.062;10.010;2023-04-01T16:08:47;10.90;99.90
59282;DHT22;45054;52.062;10.010;2023-04-01T16:11:17;10.70;99.90
59282;DHT22;45054;52.062;10.010;2023-04-01T16:13:46;10.60;99.90
59282;DHT22;45054;52.062;10.010;2023-04-01T16:16:16;10.60;99.90
59282;DHT22;45054;52.062;10.010;2023-04-01T16:19:07;10.50;99.90
59282;DHT22;45054;52.062;10.010;2023-04-01T16:21:36;10.50;99.90